Date,TemperatureHighF,TemperatureAvgF,TemperatureLowF,DewpointHighF,DewpointAvgF,DewpointLowF,HumidityHigh,HumidityAvg,HumidityLow,PressureMaxIn,PressureMinIn,WindSpeedMaxMPH,WindSpeedAvgMPH,GustSpeedMaxMPH,PrecipitationSumIn
2013-1-1,16,7,0,6,1,-4,85,76,65,30.31,30.19,13,3,14,0.00
2013-1-2,25,18,5,17,12,-2,86,77,66,30.24,30.10,16,4,18,0.00
2013-1-3,26,21,15,20,16,10,83,81,76,30.24,30.09,21,6,21,0.00
2013-1-4,27,20,12,18,14,7,84,76,68,30.23,30.08,26,9,28,0.00
2013-1-5,35,26,9,32,22,6,91,84,73,30.26,29.90,20,6,20,0.01
2013-1-6,34,28,16,31,22,13,89,80,69,30.32,29.89,16,4,20,0.00
2013-1-7,37,27,13,27,20,10,90,74,58,30.32,30.06,27,10,27,0.00
2013-1-8,39,32,23,31,28,20,91,82,70,30.16,29.95,22,6,22,0.12
2013-1-9,39,35,27,32,27,21,83,72,58,30.48,29.92,34,10,36,0.17
2013-1-10,39,31,18,35,27,15,93,85,76,30.55,29.95,21,5,21,0.51
2013-1-11,44,39,37,42,38,35,94,94,93,29.95,29.64,18,5,18,0.11
2013-1-12,49,38,25,44,32,21,94,79,67,30.01,29.64,36,10,36,0.00
2013-1-13,25,19,13,21,12,5,84,77,70,30.23,29.92,21,5,22,0.00
2013-1-14,25,16,8,13,8,3,81,72,55,30.49,30.22,16,4,17,0.00
2013-1-15,30,20,10,18,13,7,87,73,54,30.47,30.13,16,5,17,0.01
2013-1-16,32,27,17,28,20,11,86,75,61,30.13,29.76,31,8,35,0.00
2013-1-17,29,19,9,22,8,2,80,64,48,30.45,30.09,17,3,20,0.00
2013-1-18,41,28,7,33,21,3,87,76,65,30.48,29.83,31,10,34,0.05
2013-1-19,44,36,14,35,28,2,86,72,40,29.88,29.62,49,9,49,0.01
2013-1-20,15,10,6,4,-1,-3,69,61,49,30.32,29.89,31,4,35,0.00
2013-1-21,8,2,-5,-1,-8,-15,72,62,53,30.34,30.18,22,4,23,0.00
2013-1-22,6,-1,-7,-7,-11,-16,69,63,55,30.42,30.33,23,4,23,0.00
2013-1-23,17,10,1,11,2,-8,83,72,64,30.45,30.15,21,5,23,0.00
2013-1-24,16,10,2,9,0,-6,77,65,56,30.72,30.44,20,3,20,0.00
2013-1-25,22,18,14,17,13,7,86,78,61,30.44,29.99,18,5,18,0.00
2013-1-26,25,17,7,15,10,3,81,73,62,30.44,30.22,13,2,13,0.00
2013-1-27,33,29,24,31,24,14,93,83,67,30.42,29.93,23,8,23,0.00
2013-1-28,38,34,30,34,31,27,94,90,79,30.00,29.82,14,2,14,0.23
2013-1-29,55,43,35,54,41,33,94,93,92,29.88,29.48,17,6,17,0.94
2013-1-30,36,27,16,34,25,12,93,90,84,29.58,29.27,25,7,25,0.08
2013-1-31,16,11,3,12,6,-3,85,78,69,30.15,29.58,19,5,22,0.00
2013-2-1,6,2,-3,2,-4,-8,83,74,66,30.35,30.15,21,7,21,0.00
2013-2-2,12,7,3,3,1,-2,85,75,59,30.23,30.09,13,3,14,0.00
2013-2-3,18,11,4,8,4,-2,87,76,62,30.11,30.00,20,3,20,0.00
2013-2-4,19,12,4,8,5,-1,86,73,51,30.10,30.00,12,2,12,0.00
2013-2-5,25,17,-1,21,12,-5,88,81,71,30.16,29.83,17,4,18,0.00
2013-2-6,33,19,0,30,14,-4,88,80,61,30.31,30.16,16,2,16,0.07
2013-2-7,34,31,22,32,29,20,93,90,85,30.18,29.97,14,4,15,0.08
2013-2-8,24,18,4,20,15,0,91,86,77,30.46,30.07,11,1,14,0.03
2013-2-9,28,18,0,24,14,-4,91,87,82,30.47,30.16,23,4,23,0.00
2013-2-10,41,34,22,40,31,20,94,92,86,30.17,29.43,25,8,25,0.32
2013-2-11,40,32,27,37,27,20,90,81,74,29.98,29.41,33,13,33,0.00
2013-2-12,28,24,21,21,19,17,86,79,70,30.10,29.90,19,6,19,0.00
2013-2-13,37,30,20,29,25,17,91,81,68,29.91,29.72,13,5,14,0.00
2013-2-14,36,32,26,33,29,19,92,88,77,30.02,29.60,24,4,24,0.10
2013-2-15,26,20,13,19,10,5,81,68,54,30.23,30.02,17,3,21,0.00
2013-2-16,17,11,5,7,2,-2,79,67,50,30.25,30.18,14,2,14,0.00
2013-2-17,27,15,1,19,5,-4,81,65,45,30.28,30.06,17,3,17,0.00
2013-2-18,41,34,27,37,29,19,92,80,71,30.06,29.42,23,7,24,0.29
2013-2-19,33,15,8,31,11,1,92,81,70,30.18,29.46,28,6,28,0.00
2013-2-20,23,14,6,13,6,0,83,72,62,30.45,30.18,17,4,17,0.01
2013-2-21,26,20,13,24,16,7,90,83,73,30.49,30.19,22,6,22,0.00
2013-2-22,31,28,23,29,25,19,92,89,82,30.19,29.83,27,7,27,0.06
2013-2-23,29,26,22,24,21,18,88,82,73,29.95,29.85,18,7,18,0.01
2013-2-24,38,28,20,26,22,16,91,79,60,30.19,29.95,11,2,11,0.02
2013-2-25,37,27,12,29,22,9,92,85,70,30.23,30.12,10,2,10,0.00
2013-2-26,34,32,29,30,28,25,93,85,76,30.13,29.66,29,10,31,0.00
2013-2-27,33,31,28,31,29,27,93,93,92,29.78,29.62,25,9,28,0.10
2013-2-28,32,29,24,30,25,20,92,85,77,30.15,29.78,25,8,25,0.02
2013-3-1,24,23,19,20,18,13,84,80,71,30.30,30.14,21,8,22,0.00
2013-3-2,26,18,4,17,11,0,86,76,66,30.29,30.22,15,3,17,0.01
2013-3-3,28,12,-2,14,5,-6,88,73,53,30.23,30.16,10,2,10,0.00
2013-3-4,30,20,-1,25,15,-6,88,81,73,30.23,30.13,13,3,13,0.00
2013-3-5,31,29,27,26,23,21,87,79,70,30.14,29.96,23,8,24,0.00
2013-3-6,35,30,26,29,25,22,87,81,74,30.33,30.09,19,4,19,0.00
2013-3-7,33,26,13,23,18,9,87,73,59,30.50,30.33,10,2,10,0.00
2013-3-8,36,24,7,29,20,4,90,83,72,30.55,30.36,14,4,14,0.00
2013-3-9,36,33,27,33,30,24,92,87,83,30.36,29.88,25,8,25,0.27
2013-3-10,40,36,34,39,34,32,94,93,92,29.87,29.66,26,5,26,1.05
2013-3-11,36,34,29,34,32,26,94,93,89,29.74,29.53,13,2,13,0.01
2013-3-12,32,28,23,26,22,18,91,79,66,30.01,29.74,18,5,19,0.05
2013-3-13,32,25,18,17,13,10,83,63,40,30.33,30.02,18,4,18,0.00
2013-3-14,37,28,16,26,17,10,88,64,39,30.34,30.08,14,3,14,0.00
2013-3-15,35,31,27,31,28,24,90,86,79,30.09,29.89,18,5,18,0.03
2013-3-16,31,26,21,24,20,15,91,80,62,30.17,29.86,19,5,19,0.03
2013-3-17,27,22,15,21,14,3,80,69,61,30.34,30.11,16,5,17,0.00
2013-3-18,32,28,18,30,24,13,91,86,77,30.11,29.59,28,8,29,0.12
2013-3-19,28,20,14,15,11,7,83,68,50,30.04,29.69,31,11,34,0.00
2013-3-20,22,16,10,8,4,-1,66,59,49,30.08,30.04,24,5,24,0.00
2013-3-21,30,20,11,16,10,4,74,65,52,30.09,30.05,17,3,17,0.00
2013-3-22,35,24,12,20,14,6,85,67,50,30.14,30.07,9,2,9,0.00
2013-3-23,36,27,14,26,20,11,89,76,55,30.21,30.12,11,2,11,0.00
2013-3-24,33,31,28,29,26,20,89,79,71,30.12,29.82,28,7,28,0.02
2013-3-25,34,30,26,26,24,20,86,76,67,30.13,29.83,23,7,26,0.01
2013-3-26,41,34,29,29,26,23,82,72,62,30.27,30.13,14,2,14,0.00
2013-3-27,44,37,30,27,23,19,80,60,40,30.32,30.27,13,2,13,0.00
2013-3-28,45,35,24,26,22,18,79,59,37,30.37,30.32,11,2,13,0.00
2013-3-29,47,35,23,26,22,18,85,61,32,30.36,30.27,11,2,11,0.00
2013-3-30,49,39,26,40,30,20,89,71,55,30.27,29.83,15,5,16,0.02
2013-3-31,48,39,31,40,33,20,91,79,57,29.91,29.70,24,5,25,0.00
2013-4-1,36,29,24,20,14,10,64,53,41,30.20,29.91,22,5,22,0.00
2013-4-2,39,31,23,19,16,11,72,54,34,30.35,30.20,18,2,18,0.00
2013-4-3,40,31,22,24,18,10,80,59,32,30.52,30.33,14,4,14,0.00
2013-4-4,56,42,29,35,25,12,64,51,39,30.33,29.97,25,8,26,0.00
2013-4-5,41,35,28,30,26,22,86,70,53,30.29,30.05,20,4,23,0.00
2013-4-6,54,40,30,48,35,24,90,81,69,30.24,29.55,25,10,25,0.13
2013-4-7,51,40,34,48,34,30,90,77,63,30.02,29.55,27,4,27,0.00
2013-4-8,44,38,33,41,36,30,93,90,87,30.05,29.69,18,4,18,0.47
2013-4-9,39,36,34,37,34,32,94,92,90,30.10,29.92,29,7,31,0.86
2013-4-10,37,35,32,34,33,30,93,91,86,30.14,29.93,27,10,27,0.85
2013-4-11,37,35,34,35,33,32,93,92,87,30.02,29.66,32,10,32,0.42
2013-4-12,39,35,33,36,33,31,94,92,84,29.81,29.57,14,3,14,0.12
2013-4-13,38,35,32,32,28,25,92,78,61,30.03,29.79,23,6,23,0.01
2013-4-14,43,35,28,40,32,25,91,87,80,30.07,29.72,23,6,23,0.05
2013-4-15,62,51,42,51,44,33,93,79,42,29.96,29.68,27,9,27,0.14
2013-4-16,51,42,34,38,33,29,86,71,51,30.34,29.95,18,3,18,0.00
2013-4-17,41,38,36,38,35,31,92,86,73,30.39,29.95,21,6,21,0.46
2013-4-18,47,43,39,46,41,35,94,93,81,29.96,29.37,32,6,33,0.55
2013-4-19,40,36,30,35,28,19,86,74,60,29.90,29.34,34,11,37,0.02
2013-4-20,43,33,26,26,20,14,83,61,32,30.47,29.90,19,4,19,0.00
2013-4-21,42,37,28,32,27,24,87,69,52,30.58,30.33,23,8,24,0.00
2013-4-22,56,46,36,43,36,31,88,68,45,30.34,30.07,22,7,22,0.00
2013-4-23,53,43,36,48,38,31,91,82,63,30.07,29.90,17,4,17,0.30
2013-4-24,53,42,33,31,27,22,78,57,31,30.04,29.97,23,4,23,0.00
2013-4-25,53,44,37,35,31,24,87,61,36,30.31,29.97,23,6,24,0.03
2013-4-26,69,52,37,48,38,28,74,60,41,30.34,30.16,30,10,32,0.00
2013-4-27,63,55,47,51,44,39,85,68,48,30.25,30.04,23,6,23,0.00
2013-4-28,64,54,44,49,44,39,89,71,49,30.04,29.83,13,3,13,0.00
2013-4-29,71,58,49,58,51,46,92,78,54,29.86,29.77,20,6,20,0.01
2013-4-30,86,67,49,62,53,45,91,65,28,29.88,29.69,32,9,32,0.00
2013-5-1,77,65,46,60,53,36,82,64,50,30.24,29.88,32,7,33,0.00
2013-5-2,57,45,37,45,38,33,91,77,63,30.29,30.19,24,8,28,0.41
2013-5-3,49,42,36,44,39,34,92,89,81,30.24,30.06,25,8,25,0.39
2013-5-4,67,54,43,51,45,40,88,72,51,30.11,30.05,18,4,19,0.00
2013-5-5,71,57,45,50,43,36,83,61,37,30.11,30.04,15,4,15,0.00
2013-5-6,74,60,48,48,40,29,73,50,20,30.10,30.00,12,3,12,0.00
2013-5-7,73,59,44,50,42,37,84,55,32,30.08,30.01,11,2,12,0.00
2013-5-8,76,60,42,52,43,36,91,58,24,30.06,29.98,13,2,13,0.00
2013-5-9,70,54,41,55,46,38,91,75,54,29.98,29.93,27,5,27,0.55
2013-5-10,46,41,36,42,39,34,92,90,85,30.01,29.89,31,8,31,0.52
2013-5-11,52,45,37,50,36,24,94,75,41,30.02,29.78,30,5,36,0.08
2013-5-12,51,42,35,34,29,25,85,61,38,30.17,30.02,21,5,21,0.01
2013-5-13,53,41,29,39,31,26,92,69,39,30.22,29.99,17,5,18,0.00
2013-5-14,77,60,43,57,47,34,85,64,46,29.99,29.53,21,6,21,0.00
2013-5-15,77,70,55,59,46,40,63,44,28,29.82,29.52,23,4,23,0.00
2013-5-16,73,62,55,51,42,28,76,48,30,30.03,29.82,16,4,18,0.00
2013-5-17,55,51,47,50,43,34,91,76,45,30.16,30.01,16,4,16,0.60
2013-5-18,70,59,50,63,51,45,87,77,62,30.13,29.98,12,4,13,0.00
2013-5-19,78,64,51,67,57,47,90,80,63,29.99,29.75,26,5,26,0.01
2013-5-20,84,73,60,67,60,56,89,66,40,29.76,29.65,24,7,24,0.05
2013-5-21,79,68,60,67,60,56,93,77,48,29.69,29.60,22,6,24,0.34
2013-5-22,64,57,52,59,54,50,93,91,82,29.79,29.64,14,3,14,1.23
2013-5-23,53,47,39,50,42,34,93,83,64,30.35,29.79,24,7,24,0.15
2013-5-24,56,46,38,45,36,32,89,69,50,30.48,30.35,13,3,13,0.00
2013-5-25,60,50,39,42,37,31,90,63,37,30.45,30.34,12,2,12,0.00
2013-5-26,63,52,39,50,41,34,88,68,51,30.35,30.22,13,3,14,0.00
2013-5-27,53,50,48,49,45,36,93,83,59,30.23,29.95,21,6,21,0.10
2013-5-28,71,55,49,66,53,47,94,91,82,29.95,29.74,11,2,11,0.55
2013-5-29,80,65,54,69,60,52,94,84,60,29.92,29.79,23,5,23,0.00
2013-5-30,81,70,63,71,64,60,92,82,68,29.90,29.74,25,6,25,0.19
2013-5-31,76,69,61,68,63,58,93,82,64,29.82,29.70,21,7,21,0.12
2013-6-1,78,68,59,68,62,56,93,82,63,29.70,29.59,21,5,21,1.64
2013-6-2,60,52,42,58,46,40,92,82,64,30.05,29.64,19,4,19,0.01
2013-6-3,70,56,41,52,45,39,93,70,39,30.12,30.03,14,4,15,0.00
2013-6-4,65,55,47,52,46,41,89,72,57,30.20,30.10,12,3,12,0.06
2013-6-5,60,53,47,52,47,44,89,79,57,30.18,30.02,15,3,15,0.06
2013-6-6,64,55,50,57,49,44,92,81,67,30.02,29.96,16,3,16,0.08
2013-6-7,71,60,49,53,46,40,88,63,36,30.02,29.93,13,3,15,0.00
2013-6-8,70,58,45,57,50,43,93,77,57,30.05,29.93,10,2,10,0.00
2013-6-9,71,61,51,63,55,45,88,80,70,30.06,29.87,17,3,17,0.00
2013-6-10,75,64,56,66,59,52,92,83,70,29.86,29.80,13,2,14,0.00
2013-6-11,82,69,56,68,61,54,94,78,55,29.91,29.80,13,2,13,0.00
2013-6-12,76,65,56,67,61,54,92,87,69,29.92,29.68,22,3,22,0.62
2013-6-13,72,63,54,61,54,49,91,74,54,30.09,29.73,19,4,19,0.00
2013-6-14,72,62,52,58,50,45,89,68,42,30.16,30.03,13,3,13,0.00
2013-6-15,74,62,51,67,58,44,92,84,69,30.06,29.81,13,4,14,0.36
2013-6-16,83,72,62,65,59,52,92,68,36,29.88,29.81,19,3,19,0.01
2013-6-17,83,65,55,68,57,50,90,75,47,30.00,29.86,20,3,21,0.00
2013-6-18,69,59,51,55,48,36,88,67,46,30.11,29.98,18,5,18,0.00
2013-6-19,70,60,44,54,46,39,92,62,45,30.18,30.10,18,4,18,0.00
2013-6-20,78,67,55,63,52,40,70,58,50,30.17,30.09,20,4,21,0.00
2013-6-21,78,69,61,69,62,53,92,81,67,30.11,29.88,27,5,29,0.30
2013-6-22,76,68,60,68,64,57,93,86,75,30.09,29.95,18,4,19,0.01
2013-6-23,87,75,61,75,67,59,93,78,58,30.01,29.85,19,6,19,0.00
2013-6-24,82,73,67,71,67,64,92,81,63,29.99,29.81,17,4,17,0.00
2013-6-25,80,70,66,72,66,63,93,88,70,29.93,29.75,13,3,14,0.23
2013-6-26,80,71,64,71,66,61,92,84,70,29.82,29.71,18,3,18,0.00
2013-6-27,85,72,61,73,65,59,94,81,50,29.77,29.66,20,2,23,0.01
2013-6-28,78,69,63,65,62,60,90,78,59,29.68,29.57,16,4,17,0.00
2013-6-29,73,66,61,62,58,55,91,77,56,29.83,29.61,23,7,23,0.00
2013-6-30,76,67,59,57,50,42,74,55,32,30.04,29.83,22,6,23,0.00
2013-7-1,80,68,58,55,49,43,73,53,31,30.12,30.04,16,5,16,0.00
2013-7-2,72,62,56,53,50,43,87,64,42,30.13,30.09,16,4,19,0.00
2013-7-3,64,62,59,62,58,53,92,87,75,30.10,30.03,11,2,13,0.47
2013-7-4,78,69,61,67,62,59,94,79,57,30.10,30.01,20,4,20,0.00
2013-7-5,84,73,62,68,62,56,90,70,50,30.06,29.99,22,5,22,0.00
2013-7-6,83,73,61,69,64,58,91,75,51,30.04,29.94,16,4,18,0.00
2013-7-7,88,76,66,74,69,63,92,78,59,29.98,29.90,13,3,13,0.00
2013-7-8,85,76,67,75,70,64,93,83,66,29.97,29.86,18,4,19,0.31
2013-7-9,82,70,62,74,67,59,94,89,77,29.99,29.78,18,3,18,0.05
2013-7-10,78,73,64,72,62,55,90,70,47,30.00,29.79,17,4,18,0.00
2013-7-11,79,67,54,64,56,51,93,69,47,30.11,30.00,13,2,13,0.00
2013-7-12,82,67,51,62,55,41,94,70,28,30.17,30.09,10,2,12,0.00
2013-7-13,82,71,56,67,58,52,90,68,43,30.17,30.09,18,4,19,0.00
2013-7-14,86,74,60,72,65,57,92,74,52,30.23,30.17,14,3,15,0.00
2013-7-15,89,77,65,74,69,62,93,77,58,30.27,30.22,11,2,12,0.00
2013-7-16,92,81,71,77,73,67,92,78,53,30.26,30.19,16,3,16,0.00
2013-7-17,96,82,74,76,73,71,92,76,47,30.26,30.12,25,2,25,0.15
2013-7-18,94,83,72,76,72,69,92,72,50,30.13,29.85,19,5,20,0.00
2013-7-19,92,84,74,73,69,61,77,62,48,29.85,29.67,26,7,26,0.00
2013-7-20,80,70,62,66,60,54,91,71,54,29.98,29.77,15,2,16,0.00
2013-7-21,76,66,61,63,59,53,92,77,62,30.01,29.89,13,3,13,0.68
2013-7-22,85,73,62,74,67,60,94,83,57,29.91,29.66,16,4,22,0.01
2013-7-23,76,68,55,70,57,51,86,69,56,30.00,29.66,25,6,25,0.00
2013-7-24,74,61,50,58,52,47,91,72,52,30.10,30.00,11,2,11,0.00
2013-7-25,78,65,51,63,57,48,93,76,51,30.09,29.96,18,5,19,0.00
2013-7-26,74,66,59,66,62,55,92,85,70,29.97,29.84,19,4,22,0.09
2013-7-27,61,56,53,56,49,45,90,78,60,29.92,29.85,15,4,18,0.00
2013-7-28,67,58,52,55,52,49,90,80,62,29.99,29.83,18,5,18,0.04
2013-7-29,73,61,55,60,54,50,91,79,57,30.20,29.99,12,3,12,0.00
2013-7-30,74,63,52,65,58,50,94,85,69,30.21,30.10,13,3,13,0.00
2013-7-31,79,66,60,68,62,58,93,88,65,30.11,29.93,11,2,12,0.32
2013-8-1,78,66,57,62,56,52,93,72,43,29.97,29.90,14,2,16,0.01
2013-8-2,80,69,56,67,60,53,93,75,50,29.95,29.83,14,2,14,0.42
2013-8-3,77,66,52,60,55,48,92,69,41,30.13,29.95,17,2,17,0.00
2013-8-4,71,62,53,60,55,50,91,78,55,30.23,30.13,11,2,11,0.00
2013-8-5,74,64,52,64,57,49,92,81,66,30.14,29.87,13,4,17,0.00
2013-8-6,84,72,60,68,64,57,93,78,53,29.87,29.76,12,3,13,0.00
2013-8-7,78,70,62,68,63,59,93,81,60,29.98,29.73,29,3,30,1.07
2013-8-8,75,66,56,60,55,48,92,71,41,30.06,29.97,10,2,11,0.00
2013-8-9,81,67,54,64,57,51,92,71,47,30.06,29.96,15,2,15,0.00
2013-8-10,73,64,53,62,56,51,93,78,57,30.15,30.06,9,1,9,0.00
2013-8-11,68,61,54,62,58,51,93,89,74,30.14,30.04,10,1,11,0.11
2013-8-12,80,68,58,69,61,51,94,81,53,30.04,29.88,21,2,23,0.00
2013-8-13,69,59,50,54,49,46,90,72,52,30.19,30.00,15,4,16,0.00
2013-8-14,70,59,45,55,49,42,91,71,44,30.25,30.15,11,3,11,0.00
2013-8-15,80,66,53,59,52,47,89,65,35,30.16,30.07,13,3,13,0.00
2013-8-16,80,66,54,62,56,51,92,72,45,30.20,30.11,8,1,11,0.00
2013-8-17,80,66,52,61,55,49,94,72,37,30.26,30.18,14,2,14,0.00
2013-8-18,80,66,51,60,56,49,94,73,41,30.23,30.10,15,2,15,0.01
2013-8-19,85,70,56,64,59,53,91,71,43,30.11,30.00,15,3,16,0.00
2013-8-20,88,74,61,69,64,58,92,74,42,30.07,29.99,18,4,18,0.00
2013-8-21,90,78,67,72,67,63,91,70,52,30.01,29.86,27,6,27,0.17
2013-8-22,76,68,56,70,63,53,92,84,53,30.13,29.98,13,2,14,0.01
2013-8-23,77,65,54,65,57,52,94,76,52,30.21,30.13,11,2,11,0.01
2013-8-24,81,68,53,66,58,50,94,74,47,30.27,30.18,19,4,19,0.00
2013-8-25,92,79,66,69,64,57,82,62,44,30.19,30.05,23,7,23,0.00
2013-8-26,92,81,74,74,69,65,87,69,46,30.09,29.91,21,6,23,0.00
2013-8-27,96,82,70,75,72,67,91,72,45,29.93,29.75,21,5,22,0.03
2013-8-28,84,75,66,72,68,63,92,80,53,30.04,29.81,15,3,15,0.00
2013-8-29,89,75,63,71,67,61,94,78,52,30.08,29.96,15,3,16,0.00
2013-8-30,94,75,65,76,68,61,90,80,53,29.97,29.75,19,4,19,0.01
2013-8-31,79,69,60,67,63,58,92,82,59,29.87,29.80,11,2,14,0.00
2013-9-1,85,69,59,72,64,57,94,84,59,29.82,29.67,16,2,17,0.21
2013-9-2,67,63,56,60,56,50,92,79,64,30.01,29.81,15,3,15,0.01
2013-9-3,77,62,49,56,52,46,92,72,40,30.10,30.00,14,3,15,0.00
2013-9-4,82,66,56,64,58,52,89,76,50,30.16,30.02,13,3,14,0.00
2013-9-5,70,61,50,59,52,47,90,74,55,30.31,30.15,14,2,14,0.00
2013-9-6,85,66,47,66,57,45,93,75,48,30.25,29.97,13,4,14,0.00
2013-9-7,83,72,66,73,67,62,93,83,66,30.01,29.87,19,3,19,0.36
2013-9-8,70,66,63,63,61,59,90,85,76,30.09,29.97,19,4,20,0.02
2013-9-9,82,74,64,75,69,61,92,85,73,29.99,29.75,17,6,18,0.01
2013-9-10,95,83,75,72,66,63,75,59,37,29.91,29.77,22,6,22,0.00
2013-9-11,81,72,66,69,65,63,93,80,59,30.05,29.91,17,4,18,0.19
2013-9-12,72,64,54,63,57,44,93,78,60,30.14,29.95,15,3,16,0.07
2013-9-13,63,53,44,48,44,40,91,72,43,30.23,30.14,19,4,19,0.00
2013-9-14,71,56,41,50,45,39,93,69,42,30.20,30.02,14,3,14,0.00
2013-9-15,62,56,50,56,51,44,93,85,68,30.27,30.01,17,2,17,0.37
2013-9-16,61,51,42,48,43,39,89,75,55,30.43,30.27,15,4,16,0.00
2013-9-17,67,54,40,56,48,37,94,82,64,30.38,30.14,17,3,17,0.00
2013-9-18,75,65,56,67,60,52,93,84,70,30.14,29.90,19,5,19,0.34
2013-9-19,80,70,66,73,67,63,92,88,77,29.92,29.72,34,6,37,0.80
2013-9-20,72,66,58,66,61,53,94,85,68,29.79,29.68,19,5,20,0.08
2013-9-21,60,55,48,54,48,43,92,79,62,29.98,29.78,17,2,17,0.00
2013-9-22,60,51,42,47,43,38,89,75,54,30.11,29.98,14,2,14,0.00
2013-9-23,62,51,40,52,45,38,93,82,63,30.17,30.09,14,2,14,0.00
2013-9-24,67,57,48,58,52,46,94,82,65,30.11,30.00,13,2,13,0.01
2013-9-25,68,57,49,58,51,46,93,82,59,30.03,29.99,11,2,13,0.02
2013-9-26,72,58,46,62,52,44,94,82,58,30.12,30.02,14,2,15,0.01
2013-9-27,73,60,45,60,54,43,94,80,55,30.19,30.09,16,3,16,0.01
2013-9-28,73,65,55,65,60,52,91,82,67,30.09,29.84,26,8,26,0.32
2013-9-29,69,57,48,54,49,43,93,78,42,30.06,29.92,11,2,11,0.01
2013-9-30,70,57,44,54,49,42,93,75,47,30.02,29.85,17,5,17,0.01
2013-10-1,80,67,53,64,58,50,92,74,56,29.94,29.80,22,6,22,0.00
2013-10-2,74,60,46,53,46,35,91,67,26,30.12,29.94,11,2,11,0.00
2013-10-3,76,64,54,68,60,51,93,87,75,30.01,29.86,16,3,16,0.47
2013-10-4,61,60,58,59,58,56,94,94,93,30.06,29.87,17,2,18,0.15
2013-10-5,68,64,59,66,62,58,95,94,94,30.00,29.72,11,3,11,0.17
2013-10-6,63,56,48,62,48,42,95,77,49,29.74,29.66,21,4,21,0.02
2013-10-7,65,53,44,49,45,40,92,76,42,30.11,29.69,18,4,18,0.02
2013-10-8,70,55,40,55,48,37,94,78,51,30.19,30.10,20,4,20,0.01
2013-10-9,70,58,49,55,49,45,91,74,50,30.24,30.15,16,4,16,0.00
2013-10-10,70,56,42,60,50,40,94,83,54,30.20,30.08,14,2,14,0.01
2013-10-11,68,58,45,60,53,44,94,84,71,30.10,29.98,19,4,19,0.01
2013-10-12,66,59,48,62,53,41,92,80,57,30.15,29.92,17,5,17,0.23
2013-10-13,59,49,38,45,40,36,90,73,48,30.43,30.15,17,2,17,0.01
2013-10-14,59,47,34,48,40,32,94,80,56,30.46,30.20,16,2,18,0.00
2013-10-15,57,53,48,55,50,44,94,90,83,30.20,29.75,19,5,19,0.29
2013-10-16,55,50,47,50,47,45,92,88,79,29.93,29.77,14,4,15,0.03
2013-10-17,54,47,41,45,41,38,93,83,59,29.93,29.81,15,2,15,0.04
2013-10-18,52,45,38,46,40,35,92,83,74,29.94,29.81,20,5,20,0.01
2013-10-19,53,43,36,39,36,31,92,77,46,29.92,29.74,21,4,22,0.01
2013-10-20,48,42,32,45,38,30,93,88,73,29.88,29.73,19,4,19,0.14
2013-10-21,47,40,33,44,32,22,89,73,58,29.94,29.74,22,6,22,0.00
2013-10-22,47,38,29,33,28,23,83,68,50,29.97,29.92,14,4,18,0.00
2013-10-23,43,36,29,31,27,20,89,70,43,30.02,29.95,15,3,15,0.00
2013-10-24,44,37,32,31,28,26,79,69,50,30.30,30.02,15,3,16,0.00
2013-10-25,50,40,28,32,28,25,88,64,43,30.38,29.88,32,7,33,0.00
2013-10-26,50,46,38,37,31,27,71,57,44,30.07,29.76,28,6,32,0.00
2013-10-27,54,41,30,34,30,27,90,67,42,30.07,29.92,21,4,21,0.00
2013-10-28,43,40,36,36,31,27,82,72,63,30.47,30.06,23,6,24,0.00
2013-10-29,47,41,34,42,36,28,92,83,71,30.45,30.19,13,3,13,0.00
2013-10-30,53,48,41,51,45,39,94,92,89,30.18,29.78,17,3,17,0.00
2013-10-31,61,55,44,60,53,42,94,93,91,29.78,29.19,26,4,26,0.65
2013-11-1,46,44,42,42,41,39,92,90,87,29.74,29.24,25,6,26,0.08
2013-11-2,46,41,30,40,36,28,92,84,65,30.18,29.74,15,3,17,0.00
2013-11-3,50,40,28,41,35,26,94,84,58,30.34,30.18,19,4,20,0.01
2013-11-4,51,47,44,45,42,40,88,83,78,30.30,30.10,30,11,30,0.00
2013-11-5,53,50,47,48,46,44,93,88,80,30.28,29.91,22,4,22,0.15
2013-11-6,55,44,31,53,40,26,93,87,76,30.14,29.71,22,6,25,0.12
2013-11-7,42,34,28,32,28,24,89,78,60,30.25,30.14,16,3,16,0.00
2013-11-8,44,36,26,38,30,23,92,79,58,30.33,29.90,21,6,23,0.00
2013-11-9,52,46,40,40,36,26,78,68,57,30.04,29.75,36,9,36,0.01
2013-11-10,48,42,38,33,30,27,70,63,50,30.31,30.03,21,5,25,0.00
2013-11-11,42,32,25,35,24,14,91,73,56,30.56,30.07,21,6,21,0.08
2013-11-12,31,25,20,18,15,11,77,66,46,30.72,30.56,19,5,19,0.00
2013-11-13,42,31,20,21,17,13,77,57,36,30.58,30.05,34,12,35,0.00
2013-11-14,46,40,33,33,26,19,71,58,49,30.05,29.89,32,9,34,0.00
2013-11-15,56,44,36,40,34,29,82,67,52,29.95,29.90,14,5,15,0.00
2013-11-16,58,45,34,55,42,31,94,91,81,29.93,29.53,25,9,29,0.05
2013-11-17,59,51,40,55,48,33,94,89,74,29.60,29.05,31,7,34,0.78
2013-11-18,41,34,28,35,25,21,81,71,64,30.27,29.60,30,6,32,0.00
2013-11-19,37,30,21,31,25,18,90,81,65,30.42,30.27,11,3,11,0.00
2013-11-20,42,37,32,35,32,29,91,82,70,30.32,30.16,27,8,27,0.04
2013-11-21,44,40,36,40,37,33,93,89,83,30.26,30.15,11,2,11,0.01
2013-11-22,39,32,26,36,25,15,91,77,60,30.48,30.25,21,5,21,0.01
2013-11-23,27,19,12,18,8,3,80,62,50,30.74,30.41,25,6,28,0.00
2013-11-24,26,18,9,8,6,3,80,59,39,30.73,30.29,30,7,30,0.00
2013-11-25,29,26,22,25,19,6,89,75,47,30.29,30.03,36,10,36,0.00
2013-11-26,31,26,14,26,17,5,86,70,48,30.22,30.03,21,5,21,0.00
2013-11-27,27,20,12,18,12,6,87,71,54,30.30,30.20,18,3,18,0.00
2013-11-28,27,21,12,19,16,9,88,80,70,30.55,30.24,13,2,13,0.00
2013-11-29,32,22,9,25,16,6,90,77,53,30.69,30.42,17,3,17,0.00
2013-11-30,45,36,28,32,27,21,81,72,57,30.42,30.06,17,5,17,0.00
2013-12-1,40,34,27,30,28,24,90,80,61,30.17,30.03,10,2,10,0.00
2013-12-2,40,33,23,34,28,21,92,85,75,30.03,29.86,20,3,20,0.02
2013-12-3,37,36,33,36,34,31,94,93,90,29.86,29.76,21,6,21,0.30
2013-12-4,50,42,36,48,40,35,95,93,86,29.83,29.46,31,6,32,0.07
2013-12-5,39,25,15,35,17,8,87,73,61,30.28,29.56,33,10,33,0.00
2013-12-6,18,11,7,8,3,0,80,71,58,30.59,30.27,17,4,17,0.00
2013-12-7,16,8,1,4,0,-4,78,70,55,30.74,30.58,15,3,18,0.00
2013-12-8,26,16,5,23,11,-1,91,82,68,30.68,29.99,16,4,16,0.00
2013-12-9,26,13,-2,23,7,-8,91,78,62,30.21,29.94,31,7,31,0.00
2013-12-10,18,8,-5,11,1,-11,83,75,67,30.31,29.96,27,7,27,0.00
2013-12-11,11,6,-4,7,-3,-12,85,69,54,30.57,30.31,18,4,18,0.00
2013-12-12,17,9,-4,10,2,-10,79,71,64,30.55,30.24,19,7,20,0.00
2013-12-13,24,18,16,19,13,10,85,80,75,30.31,30.22,16,4,17,0.00
2013-12-14,25,23,18,22,20,15,90,88,82,30.28,29.95,15,4,16,0.00
2013-12-15,19,10,0,16,2,-8,89,71,55,30.17,29.92,22,4,22,0.00
2013-12-16,19,8,-4,11,2,-10,87,77,60,30.23,30.03,13,3,14,0.00
2013-12-17,34,24,13,26,19,10,89,81,65,30.07,29.92,20,6,23,0.07
2013-12-18,32,22,10,26,14,5,79,72,61,30.14,29.79,22,6,22,0.00
2013-12-19,32,28,23,28,24,19,92,85,77,30.06,29.82,18,4,18,0.00
2013-12-20,29,26,23,27,24,21,92,91,89,29.95,29.84,16,4,16,0.00
2013-12-21,31,27,24,28,25,22,93,92,89,29.93,29.76,17,4,20,0.00
2013-12-22,30,25,20,28,23,17,93,91,88,30.14,29.74,14,5,22,0.00
2013-12-23,22,16,7,19,13,3,91,87,84,30.43,30.14,16,2,16,0.00
2013-12-24,19,8,-5,12,3,-9,87,81,62,30.59,30.40,15,2,15,0.03
2013-12-25,22,19,12,20,16,8,90,87,83,30.40,30.11,16,6,16,0.00
2013-12-26,22,19,15,19,15,11,90,85,76,30.29,30.10,13,2,13,0.00
2013-12-27,36,25,4,30,20,1,92,83,75,30.33,30.01,26,6,26,0.07
2013-12-28,44,36,23,32,29,20,91,76,62,30.08,29.77,25,8,25,0.21
2013-12-29,40,20,0,31,13,-6,88,75,66,30.25,29.74,24,5,24,0.00
2013-12-30,4,-2,-10,-3,-9,-15,81,72,55,30.40,30.25,13,3,13,0.00
2013-12-31,8,4,0,1,-2,-9,80,74,63,30.47,30.25,16,4,19,0.00
2014-1-1,11,6,-2,6,0,-10,81,74,66,30.48,30.38,15,6,15,0.00
2014-1-2,12,7,-2,6,1,-9,85,76,63,30.48,30.33,16,4,16,0.00